createdAt,value
2023-08-08T08:58:29.363Z,96792.11
2023-08-08T09:06:51.997Z,96775.84
2023-08-08T09:15:13.630Z,96498.48
2023-08-08T09:23:38.434Z,96250.02
2023-08-08T09:32:02.721Z,96017.42
2023-08-08T09:40:24.521Z,95931.45
2023-08-08T09:48:47.011Z,95936.98
2023-08-08T09:57:08.993Z,95967.41
2023-08-08T10:05:31.780Z,95949.67
2023-08-08T10:13:54.758Z,96094.47
2023-08-08T10:22:22.881Z,96017.79
2023-08-08T10:30:53.421Z,96221.70
2023-08-08T10:39:21.173Z,96377.64
2023-08-08T10:47:45.398Z,96239.95
2023-08-08T10:56:14.531Z,96368.72
2023-08-08T11:04:36.702Z,96331.95
2023-08-08T11:13:01.339Z,96386.42
2023-08-08T11:21:23.903Z,96634.30
2023-08-08T11:29:52.244Z,96917.56
2023-08-08T11:38:14.860Z,96762.52
2023-08-08T11:46:44.887Z,96581.51
2023-08-08T11:55:08.016Z,96509.91
2023-08-08T12:03:29.701Z,96379.77
2023-08-08T12:11:51.319Z,96267.80
2023-08-08T12:20:16.433Z,96135.27
2023-08-08T12:28:38.435Z,96219.03
2023-08-08T12:37:00.208Z,96478.55
2023-08-08T12:45:24.291Z,96516.82
2023-08-08T12:53:45.810Z,96452.85
2023-08-08T13:02:08.584Z,96557.65
2023-08-08T13:10:31.264Z,96688.00
2023-08-08T13:18:52.990Z,96784.27
2023-08-08T13:27:14.759Z,96781.16
2023-08-08T13:35:36.333Z,96633.36
2023-08-08T13:43:58.134Z,96570.73
2023-08-08T13:52:19.634Z,96587.99
2023-08-08T14:00:41.552Z,96473.05
2023-08-08T14:09:04.652Z,96330.94
2023-08-08T14:17:26.174Z,96384.40
2023-08-08T14:25:48.238Z,96557.70
2023-08-08T14:34:09.717Z,96630.81
2023-08-08T14:42:31.284Z,96660.55
2023-08-08T14:50:53.085Z,96572.88
2023-08-08T14:59:16.102Z,96466.50
2023-08-08T15:07:37.572Z,96518.50
2023-08-08T15:15:59.120Z,96625.23
2023-08-08T15:24:20.753Z,96579.71
2023-08-08T15:32:42.334Z,96506.98
2023-08-08T15:41:03.838Z,96562.52
2023-08-08T15:49:25.954Z,96494.09
2023-08-08T15:57:47.784Z,96387.14
2023-08-08T16:06:09.274Z,96341.42
2023-08-08T16:14:30.728Z,96295.92
2023-08-08T16:22:53.992Z,96188.23
2023-08-08T16:31:15.673Z,96177.95
2023-08-08T16:39:37.220Z,96097.73
2023-08-08T16:47:58.729Z,95924.14
2023-08-08T16:56:20.747Z,95754.17
2023-08-08T17:04:42.338Z,95654.99
2023-08-08T17:13:03.852Z,95558.33
2023-08-08T17:21:25.528Z,95470.82
2023-08-08T17:29:47.012Z,95405.58
2023-08-08T17:38:08.913Z,95329.63
2023-08-08T17:46:30.565Z,95257.33
2023-08-08T17:54:52.158Z,95174.21
2023-08-08T18:03:13.736Z,95041.96
2023-08-08T18:11:38.762Z,94882.83
2023-08-08T18:20:00.628Z,94734.55
2023-08-08T18:28:22.165Z,94613.15
2023-08-08T18:36:44.335Z,94510.09
2023-08-08T18:45:07.169Z,94411.96
2023-08-08T18:53:28.774Z,94328.40
2023-08-08T19:01:50.595Z,94255.70
2023-08-08T19:10:12.738Z,94175.33
2023-08-08T19:18:35.035Z,94093.05
2023-08-08T19:26:57.091Z,93977.58
2023-08-08T19:35:18.850Z,93880.74
2023-08-08T19:43:40.348Z,93845.91
2023-08-08T19:52:02.567Z,93833.29
2023-08-08T20:00:25.688Z,93809.15
2023-08-08T20:08:48.087Z,93786.30
2023-08-08T20:17:14.301Z,93736.25
2023-08-08T20:25:40.276Z,93671.73
2023-08-08T20:34:01.819Z,93622.48
2023-08-08T20:42:23.374Z,93598.38
2023-08-08T20:50:46.101Z,93578.19
2023-08-08T20:59:07.565Z,93558.02
2023-08-08T21:07:29.951Z,93551.96
2023-08-08T21:15:51.428Z,93594.64
2023-08-08T21:24:12.952Z,93630.56
2023-08-08T21:32:36.499Z,93653.95
2023-08-08T21:40:58.082Z,93629.88
2023-08-08T21:49:19.786Z,93589.06
2023-08-08T21:57:41.288Z,93573.92
2023-08-08T22:06:02.935Z,93555.42
2023-08-08T22:14:25.599Z,93527.61
2023-08-08T22:22:47.403Z,93525.02
2023-08-08T22:31:09.170Z,93554.74
2023-08-08T22:39:30.791Z,93594.86
2023-08-08T22:47:52.338Z,93621.91
2023-08-08T22:56:13.903Z,93641.41
2023-08-08T23:04:35.659Z,93639.20
2023-08-08T23:12:57.141Z,93660.20
2023-08-08T23:21:18.769Z,93689.30
2023-08-08T23:29:40.458Z,93688.73
2023-08-08T23:38:02.972Z,93686.73
2023-08-08T23:46:25.923Z,93711.48
2023-08-08T23:54:47.377Z,93708.14
